sensor_id;sensor_type;location;lat;lon;timestamp;P1;durP1;ratioP1;P2;durP2;ratioP2
37831;SDS011;23671;38.090;-122.570;2023-02-15T00:00:02;6.03;;;1.13;;
37831;SDS011;23671;38.090;-122.570;2023-02-15T00:02:31;6.10;;;1.10;;
37831;SDS011;23671;38.090;-122.570;2023-02-15T00:04:58;5.32;;;1.13;;
37831;SDS011;23671;38.090;-122.570;2023-02-15T00:07:25;6.70;;;0.95;;
37831;SDS011;23671;38.090;-122.570;2023-02-15T00:09:52;4.85;;;0.93;;
37831;SDS011;23671;38.090;-122.570;2023-02-15T00:12:21;5.70;;;0.90;;
37831;SDS011;23671;38.090;-122.570;2023-02-15T00:14:48;3.65;;;1.00;;
37831;SDS011;23671;38.090;-122.570;2023-02-15T00:20:01;4.80;;;0.90;;
37831;SDS011;23671;38.090;-122.570;2023-02-15T00:22:28;2.95;;;0.75;;
37831;SDS011;23671;38.090;-122.570;2023-02-15T00:24:56;12.98;;;1.20;;
37831;SDS011;23671;38.090;-122.570;2023-02-15T00:27:23;26.33;;;1.50;;
37831;SDS011;23671;38.090;-122.570;2023-02-15T00:29:50;2.90;;;0.60;;
37831;SDS011;23671;38.090;-122.570;2023-02-15T00:32:17;3.67;;;0.50;;
37831;SDS011;23671;38.090;-122.570;2023-02-15T00:34:44;3.10;;;0.70;;
37831;SDS011;23671;38.090;-122.570;2023-02-15T00:37:11;6.05;;;1.23;;
37831;SDS011;23671;38.090;-122.570;2023-02-15T00:39:38;14.40;;;1.63;;
37831;SDS011;23671;38.090;-122.570;2023-02-15T00:42:08;18.45;;;3.28;;
37831;SDS011;23671;38.090;-122.570;2023-02-15T00:44:36;50.40;;;4.22;;
37831;SDS011;23671;38.090;-122.570;2023-02-15T00:47:03;56.42;;;5.57;;
37831;SDS011;23671;38.090;-122.570;2023-02-15T00:49:49;44.85;;;5.03;;
37831;SDS011;23671;38.090;-122.570;2023-02-15T00:52:16;42.42;;;5.55;;
37831;SDS011;23671;38.090;-122.570;2023-02-15T00:54:43;44.08;;;4.20;;
37831;SDS011;23671;38.090;-122.570;2023-02-15T00:57:10;23.60;;;4.05;;
37831;SDS011;23671;38.090;-122.570;2023-02-15T00:59:37;33.05;;;3.83;;
37831;SDS011;23671;38.090;-122.570;2023-02-15T01:02:04;35.40;;;3.53;;
37831;SDS011;23671;38.090;-122.570;2023-02-15T01:04:31;25.90;;;3.13;;
37831;SDS011;23671;38.090;-122.570;2023-02-15T01:06:58;20.08;;;2.95;;
37831;SDS011;23671;38.090;-122.570;2023-02-15T01:09:35;19.63;;;2.20;;
37831;SDS011;23671;38.090;-122.570;2023-02-15T01:12:02;9.07;;;1.98;;
37831;SDS011;23671;38.090;-122.570;2023-02-15T01:14:30;8.68;;;1.50;;
37831;SDS011;23671;38.090;-122.570;2023-02-15T01:16:57;8.63;;;1.80;;
37831;SDS011;23671;38.090;-122.570;2023-02-15T01:19:24;16.70;;;1.90;;
37831;SDS011;23671;38.090;-122.570;2023-02-15T01:21:51;13.63;;;2.35;;
37831;SDS011;23671;38.090;-122.570;2023-02-15T01:24:18;8.48;;;1.67;;
37831;SDS011;23671;38.090;-122.570;2023-02-15T01:26:46;6.10;;;1.50;;
37831;SDS011;23671;38.090;-122.570;2023-02-15T01:29:13;10.07;;;1.65;;
37831;SDS011;23671;38.090;-122.570;2023-02-15T01:31:40;13.52;;;2.42;;
37831;SDS011;23671;38.090;-122.570;2023-02-15T01:34:07;7.90;;;1.50;;
37831;SDS011;23671;38.090;-122.570;2023-02-15T01:36:34;8.65;;;1.67;;
37831;SDS011;23671;38.090;-122.570;2023-02-15T01:42:24;12.15;;;1.73;;
37831;SDS011;23671;38.090;-122.570;2023-02-15T01:51:38;5.10;;;1.50;;
37831;SDS011;23671;38.090;-122.570;2023-02-15T16:17:28;0.50;;;0.30;;
37831;SDS011;23671;38.090;-122.570;2023-02-15T16:20:00;0.47;;;0.30;;
37831;SDS011;23671;38.090;-122.570;2023-02-15T16:22:40;0.45;;;0.22;;
37831;SDS011;23671;38.090;-122.570;2023-02-15T16:27:44;0.28;;;0.28;;
37831;SDS011;23671;38.090;-122.570;2023-02-15T16:30:31;0.43;;;0.30;;
37831;SDS011;23671;38.090;-122.570;2023-02-15T16:35:33;0.50;;;0.30;;
37831;SDS011;23671;38.090;-122.570;2023-02-15T16:38:03;1.50;;;0.50;;
37831;SDS011;23671;38.090;-122.570;2023-02-15T16:40:41;2.03;;;0.32;;
37831;SDS011;23671;38.090;-122.570;2023-02-15T16:43:11;0.88;;;0.30;;
37831;SDS011;23671;38.090;-122.570;2023-02-15T16:45:42;0.30;;;0.30;;
37831;SDS011;23671;38.090;-122.570;2023-02-15T16:48:14;0.28;;;0.20;;
37831;SDS011;23671;38.090;-122.570;2023-02-15T16:50:50;2.97;;;0.52;;
37831;SDS011;23671;38.090;-122.570;2023-02-15T16:53:21;0.38;;;0.30;;
37831;SDS011;23671;38.090;-122.570;2023-02-15T16:55:53;0.50;;;0.30;;
37831;SDS011;23671;38.090;-122.570;2023-02-15T16:58:25;0.70;;;0.43;;
37831;SDS011;23671;38.090;-122.570;2023-02-15T17:01:04;0.43;;;0.32;;
37831;SDS011;23671;38.090;-122.570;2023-02-15T17:03:34;0.20;;;0.20;;
37831;SDS011;23671;38.090;-122.570;2023-02-15T17:06:02;0.80;;;0.35;;
37831;SDS011;23671;38.090;-122.570;2023-02-15T17:08:43;0.30;;;0.30;;
37831;SDS011;23671;38.090;-122.570;2023-02-15T17:11:19;0.20;;;0.20;;
37831;SDS011;23671;38.090;-122.570;2023-02-15T17:22:19;0.45;;;0.45;;
37831;SDS011;23671;38.090;-122.570;2023-02-15T17:24:48;1.48;;;0.40;;
37831;SDS011;23671;38.090;-122.570;2023-02-15T17:27:24;0.55;;;0.22;;
37831;SDS011;23671;38.090;-122.570;2023-02-15T17:30:00;0.38;;;0.38;;
37831;SDS011;23671;38.090;-122.570;2023-02-15T17:32:38;2.17;;;0.50;;
37831;SDS011;23671;38.090;-122.570;2023-02-15T17:35:21;1.60;;;0.38;;
37831;SDS011;23671;38.090;-122.570;2023-02-15T17:37:54;0.52;;;0.50;;
37831;SDS011;23671;38.090;-122.570;2023-02-15T17:40:29;1.13;;;0.30;;
37831;SDS011;23671;38.090;-122.570;2023-02-15T17:42:58;0.47;;;0.28;;
37831;SDS011;23671;38.090;-122.570;2023-02-15T17:45:30;0.20;;;0.20;;
37831;SDS011;23671;38.090;-122.570;2023-02-15T17:48:01;0.50;;;0.30;;
37831;SDS011;23671;38.090;-122.570;2023-02-15T17:50:30;1.02;;;0.30;;
37831;SDS011;23671;38.090;-122.570;2023-02-15T17:52:57;0.95;;;0.50;;
37831;SDS011;23671;38.090;-122.570;2023-02-15T17:55:26;0.28;;;0.28;;
37831;SDS011;23671;38.090;-122.570;2023-02-15T17:58:08;0.20;;;0.20;;
37831;SDS011;23671;38.090;-122.570;2023-02-15T18:00:43;2.28;;;0.30;;
37831;SDS011;23671;38.090;-122.570;2023-02-15T18:03:40;1.77;;;0.30;;
37831;SDS011;23671;38.090;-122.570;2023-02-15T18:06:28;0.20;;;0.20;;
37831;SDS011;23671;38.090;-122.570;2023-02-15T18:09:14;0.93;;;0.25;;
37831;SDS011;23671;38.090;-122.570;2023-02-15T18:12:02;2.45;;;0.30;;
37831;SDS011;23671;38.090;-122.570;2023-02-15T18:14:45;0.95;;;0.30;;
37831;SDS011;23671;38.090;-122.570;2023-02-15T18:17:13;0.38;;;0.20;;
37831;SDS011;23671;38.090;-122.570;2023-02-15T18:19:42;1.08;;;0.30;;
37831;SDS011;23671;38.090;-122.570;2023-02-15T18:22:11;2.28;;;0.50;;
37831;SDS011;23671;38.090;-122.570;2023-02-15T18:27:07;0.52;;;0.20;;
37831;SDS011;23671;38.090;-122.570;2023-02-15T18:29:38;0.20;;;0.20;;
37831;SDS011;23671;38.090;-122.570;2023-02-15T18:32:18;0.30;;;0.30;;
37831;SDS011;23671;38.090;-122.570;2023-02-15T18:34:54;2.22;;;0.50;;
37831;SDS011;23671;38.090;-122.570;2023-02-15T18:37:22;2.85;;;0.32;;
37831;SDS011;23671;38.090;-122.570;2023-02-15T18:39:53;1.65;;;0.52;;
37831;SDS011;23671;38.090;-122.570;2023-02-15T18:42:22;4.72;;;0.40;;
37831;SDS011;23671;38.090;-122.570;2023-02-15T18:44:54;2.05;;;0.47;;
37831;SDS011;23671;38.090;-122.570;2023-02-15T18:47:39;0.47;;;0.30;;
37831;SDS011;23671;38.090;-122.570;2023-02-15T18:50:07;2.13;;;0.35;;
37831;SDS011;23671;38.090;-122.570;2023-02-15T18:52:35;4.20;;;0.40;;
37831;SDS011;23671;38.090;-122.570;2023-02-15T18:55:04;0.20;;;0.17;;
37831;SDS011;23671;38.090;-122.570;2023-02-15T18:57:44;0.38;;;0.30;;
37831;SDS011;23671;38.090;-122.570;2023-02-15T19:00:16;0.73;;;0.30;;
37831;SDS011;23671;38.090;-122.570;2023-02-15T19:02:44;0.95;;;0.25;;
37831;SDS011;23671;38.090;-122.570;2023-02-15T19:05:12;0.75;;;0.25;;
37831;SDS011;23671;38.090;-122.570;2023-02-15T19:07:40;1.20;;;0.20;;
37831;SDS011;23671;38.090;-122.570;2023-02-15T19:10:14;0.60;;;0.20;;
37831;SDS011;23671;38.090;-122.570;2023-02-15T19:12:43;3.08;;;0.32;;
37831;SDS011;23671;38.090;-122.570;2023-02-15T19:15:14;1.50;;;0.20;;
37831;SDS011;23671;38.090;-122.570;2023-02-15T19:23:22;0.30;;;0.10;;
37831;SDS011;23671;38.090;-122.570;2023-02-15T19:25:51;1.40;;;0.30;;
37831;SDS011;23671;38.090;-122.570;2023-02-15T19:28:32;1.50;;;0.32;;
37831;SDS011;23671;38.090;-122.570;2023-02-15T19:30:59;0.10;;;0.10;;
37831;SDS011;23671;38.090;-122.570;2023-02-15T19:33:26;0.32;;;0.08;;
37831;SDS011;23671;38.090;-122.570;2023-02-15T19:35:53;1.00;;;0.22;;
37831;SDS011;23671;38.090;-122.570;2023-02-15T19:38:23;0.10;;;0.10;;
37831;SDS011;23671;38.090;-122.570;2023-02-15T19:40:55;0.25;;;0.10;;
37831;SDS011;23671;38.090;-122.570;2023-02-15T19:43:30;0.30;;;0.20;;
37831;SDS011;23671;38.090;-122.570;2023-02-15T19:45:58;1.10;;;0.40;;
37831;SDS011;23671;38.090;-122.570;2023-02-15T19:48:25;0.43;;;0.22;;
37831;SDS011;23671;38.090;-122.570;2023-02-15T19:50:52;0.20;;;0.20;;
37831;SDS011;23671;38.090;-122.570;2023-02-15T19:53:22;0.50;;;0.00;;
37831;SDS011;23671;38.090;-122.570;2023-02-15T19:55:51;0.40;;;0.10;;
37831;SDS011;23671;38.090;-122.570;2023-02-15T19:58:18;1.67;;;0.47;;
37831;SDS011;23671;38.090;-122.570;2023-02-15T20:00:46;0.20;;;0.10;;
37831;SDS011;23671;38.090;-122.570;2023-02-15T20:03:15;0.50;;;0.13;;
37831;SDS011;23671;38.090;-122.570;2023-02-15T20:05:42;2.38;;;0.15;;
37831;SDS011;23671;38.090;-122.570;2023-02-15T20:08:16;0.20;;;0.20;;
37831;SDS011;23671;38.090;-122.570;2023-02-15T20:10:47;0.38;;;0.20;;
37831;SDS011;23671;38.090;-122.570;2023-02-15T20:13:15;0.20;;;0.20;;
37831;SDS011;23671;38.090;-122.570;2023-02-15T20:15:44;0.63;;;0.20;;
37831;SDS011;23671;38.090;-122.570;2023-02-15T20:18:11;0.47;;;0.20;;
37831;SDS011;23671;38.090;-122.570;2023-02-15T20:23:20;0.28;;;0.10;;
37831;SDS011;23671;38.090;-122.570;2023-02-15T20:25:52;0.40;;;0.20;;
37831;SDS011;23671;38.090;-122.570;2023-02-15T20:28:22;0.43;;;0.20;;
37831;SDS011;23671;38.090;-122.570;2023-02-15T20:30:52;1.33;;;0.30;;
37831;SDS011;23671;38.090;-122.570;2023-02-15T20:33:19;1.05;;;0.10;;
37831;SDS011;23671;38.090;-122.570;2023-02-15T20:35:47;0.22;;;0.10;;
37831;SDS011;23671;38.090;-122.570;2023-02-15T20:38:22;0.43;;;0.10;;
37831;SDS011;23671;38.090;-122.570;2023-02-15T20:40:52;0.17;;;0.13;;
37831;SDS011;23671;38.090;-122.570;2023-02-15T20:43:39;0.10;;;0.10;;
37831;SDS011;23671;38.090;-122.570;2023-02-15T20:46:07;0.52;;;0.22;;
37831;SDS011;23671;38.090;-122.570;2023-02-15T20:48:34;0.20;;;0.10;;
37831;SDS011;23671;38.090;-122.570;2023-02-15T20:51:02;0.77;;;0.20;;
37831;SDS011;23671;38.090;-122.570;2023-02-15T20:53:29;1.38;;;0.20;;
37831;SDS011;23671;38.090;-122.570;2023-02-15T20:55:56;0.40;;;0.10;;
37831;SDS011;23671;38.090;-122.570;2023-02-15T20:58:24;0.20;;;0.10;;
37831;SDS011;23671;38.090;-122.570;2023-02-15T21:00:53;0.43;;;0.10;;
37831;SDS011;23671;38.090;-122.570;2023-02-15T21:03:22;0.25;;;0.10;;
37831;SDS011;23671;38.090;-122.570;2023-02-15T21:05:55;0.25;;;0.08;;
37831;SDS011;23671;38.090;-122.570;2023-02-15T21:08:23;0.35;;;0.20;;
37831;SDS011;23671;38.090;-122.570;2023-02-15T21:10:51;0.65;;;0.20;;
37831;SDS011;23671;38.090;-122.570;2023-02-15T21:26:34;1.55;;;0.10;;
37831;SDS011;23671;38.090;-122.570;2023-02-15T21:29:02;0.10;;;0.10;;
37831;SDS011;23671;38.090;-122.570;2023-02-15T21:31:30;0.50;;;0.20;;
37831;SDS011;23671;38.090;-122.570;2023-02-15T21:33:57;0.65;;;0.20;;
37831;SDS011;23671;38.090;-122.570;2023-02-15T21:36:24;0.00;;;0.00;;
37831;SDS011;23671;38.090;-122.570;2023-02-15T21:38:52;0.95;;;0.20;;
37831;SDS011;23671;38.090;-122.570;2023-02-15T21:41:20;1.55;;;0.10;;
37831;SDS011;23671;38.090;-122.570;2023-02-15T21:44:17;0.38;;;0.20;;
37831;SDS011;23671;38.090;-122.570;2023-02-15T21:47:04;1.05;;;0.20;;
37831;SDS011;23671;38.090;-122.570;2023-02-15T21:49:59;0.57;;;0.30;;
37831;SDS011;23671;38.090;-122.570;2023-02-15T21:52:46;0.25;;;0.10;;
37831;SDS011;23671;38.090;-122.570;2023-02-15T21:55:14;1.05;;;0.10;;
37831;SDS011;23671;38.090;-122.570;2023-02-15T21:57:41;0.20;;;0.13;;
37831;SDS011;23671;38.090;-122.570;2023-02-15T22:00:12;0.20;;;0.10;;
37831;SDS011;23671;38.090;-122.570;2023-02-15T22:02:47;0.63;;;0.33;;
37831;SDS011;23671;38.090;-122.570;2023-02-15T22:05:28;0.20;;;0.10;;
37831;SDS011;23671;38.090;-122.570;2023-02-15T22:07:57;0.25;;;0.15;;
37831;SDS011;23671;38.090;-122.570;2023-02-15T22:10:25;0.30;;;0.20;;
37831;SDS011;23671;38.090;-122.570;2023-02-15T22:13:00;0.10;;;0.10;;
37831;SDS011;23671;38.090;-122.570;2023-02-15T22:15:33;0.45;;;0.20;;
37831;SDS011;23671;38.090;-122.570;2023-02-15T22:18:01;0.10;;;0.10;;
37831;SDS011;23671;38.090;-122.570;2023-02-15T22:20:29;0.15;;;0.15;;
37831;SDS011;23671;38.090;-122.570;2023-02-15T22:22:56;0.20;;;0.20;;
37831;SDS011;23671;38.090;-122.570;2023-02-15T22:25:24;0.32;;;0.20;;
37831;SDS011;23671;38.090;-122.570;2023-02-15T22:27:52;0.20;;;0.20;;
37831;SDS011;23671;38.090;-122.570;2023-02-15T22:32:55;0.10;;;0.10;;
37831;SDS011;23671;38.090;-122.570;2023-02-15T22:37:52;0.10;;;0.10;;
37831;SDS011;23671;38.090;-122.570;2023-02-15T22:40:19;2.05;;;0.20;;
37831;SDS011;23671;38.090;-122.570;2023-02-15T22:42:50;0.70;;;0.20;;
37831;SDS011;23671;38.090;-122.570;2023-02-15T22:45:19;0.55;;;0.40;;
37831;SDS011;23671;38.090;-122.570;2023-02-15T22:47:49;0.45;;;0.10;;
37831;SDS011;23671;38.090;-122.570;2023-02-15T22:50:23;0.50;;;0.20;;
37831;SDS011;23671;38.090;-122.570;2023-02-15T22:52:52;0.60;;;0.22;;
37831;SDS011;23671;38.090;-122.570;2023-02-15T22:55:21;0.22;;;0.20;;
37831;SDS011;23671;38.090;-122.570;2023-02-15T22:57:51;1.45;;;0.20;;
37831;SDS011;23671;38.090;-122.570;2023-02-15T23:00:22;0.75;;;0.30;;
37831;SDS011;23671;38.090;-122.570;2023-02-15T23:02:52;0.10;;;0.10;;
37831;SDS011;23671;38.090;-122.570;2023-02-15T23:05:21;0.43;;;0.17;;
37831;SDS011;23671;38.090;-122.570;2023-02-15T23:07:55;0.43;;;0.30;;
37831;SDS011;23671;38.090;-122.570;2023-02-15T23:10:23;0.38;;;0.20;;
37831;SDS011;23671;38.090;-122.570;2023-02-15T23:12:52;0.47;;;0.47;;
37831;SDS011;23671;38.090;-122.570;2023-02-15T23:15:40;0.17;;;0.10;;
37831;SDS011;23671;38.090;-122.570;2023-02-15T23:20:44;1.00;;;0.17;;
37831;SDS011;23671;38.090;-122.570;2023-02-15T23:23:13;0.75;;;0.15;;
37831;SDS011;23671;38.090;-122.570;2023-02-15T23:25:41;0.10;;;0.10;;
37831;SDS011;23671;38.090;-122.570;2023-02-15T23:28:16;0.30;;;0.10;;
37831;SDS011;23671;38.090;-122.570;2023-02-15T23:30:46;0.52;;;0.30;;
37831;SDS011;23671;38.090;-122.570;2023-02-15T23:33:13;0.20;;;0.10;;
37831;SDS011;23671;38.090;-122.570;2023-02-15T23:35:41;2.72;;;0.60;;
37831;SDS011;23671;38.090;-122.570;2023-02-15T23:38:18;0.20;;;0.20;;
37831;SDS011;23671;38.090;-122.570;2023-02-15T23:40:59;0.30;;;0.20;;
37831;SDS011;23671;38.090;-122.570;2023-02-15T23:43:48;0.65;;;0.30;;
37831;SDS011;23671;38.090;-122.570;2023-02-15T23:46:23;0.95;;;0.10;;
37831;SDS011;23671;38.090;-122.570;2023-02-15T23:49:21;1.00;;;0.30;;
37831;SDS011;23671;38.090;-122.570;2023-02-15T23:51:49;0.13;;;0.13;;
37831;SDS011;23671;38.090;-122.570;2023-02-15T23:54:19;0.10;;;0.10;;
37831;SDS011;23671;38.090;-122.570;2023-02-15T23:56:48;0.10;;;0.10;;
37831;SDS011;23671;38.090;-122.570;2023-02-15T23:59:40;0.30;;;0.30;;
